Time;durP1;ratioP1;P1;durP2;ratioP2;P2;SDS_P1;SDS_P2;PMS_P1;PMS_P2;Temp;Humidity;BMP_temperature;BMP_pressure;BME280_temperature;BME280_humidity;BME280_pressure;Samples;Min_cycle;Max_cycle;Signal;HPM_P1;HPM_P2
2022/01/07 00:01:54;;;;;;;18.92;8.02;;;7.70;99.90;;;;;;5268907;28;20090;-73
2022/01/07 00:04:25;;;;;;;15.95;7.45;;;7.90;99.90;;;;;;5268849;28;20024;-73
2022/01/07 00:06:56;;;;;;;16.63;7.05;;;8.00;99.90;;;;;;5268873;28;20115;-73
2022/01/07 00:09:27;;;;;;;14.13;7.88;;;8.10;99.90;;;;;;5268830;28;20119;-73
2022/01/07 00:11:59;;;;;;;16.45;8.35;;;7.90;99.90;;;;;;5268864;28;20028;-73
2022/01/07 00:14:30;;;;;;;19.15;7.53;;;7.90;99.90;;;;;;5269255;28;20032;-73
2022/01/07 00:17:01;;;;;;;15.27;6.47;;;7.90;99.90;;;;;;5273030;28;20472;-73
2022/01/07 00:19:32;;;;;;;17.73;7.55;;;7.60;99.90;;;;;;5273001;28;20024;-73
2022/01/07 00:22:03;;;;;;;22.52;7.88;;;7.80;99.90;;;;;;5272842;28;20372;-73
2022/01/07 00:24:33;;;;;;;34.22;13.55;;;7.70;99.90;;;;;;5272725;28;20028;-73
2022/01/07 00:27:06;;;;;;;27.90;10.32;;;7.90;99.90;;;;;;5272541;28;20035;-73
2022/01/07 00:29:36;;;;;;;17.65;8.55;;;7.90;99.90;;;;;;5272804;28;20047;-73
2022/01/07 00:32:07;;;;;;;14.38;7.50;;;8.00;99.90;;;;;;5272637;28;20078;-73
2022/01/07 00:34:38;;;;;;;13.52;7.80;;;8.10;99.90;;;;;;5272532;28;20035;-73
2022/01/07 00:37:09;;;;;;;14.65;7.00;;;7.90;99.90;;;;;;5272769;28;20482;-73
2022/01/07 00:39:40;;;;;;;17.15;5.93;;;8.00;99.90;;;;;;5272695;28;20032;-73
2022/01/07 00:42:11;;;;;;;10.52;5.68;;;8.10;99.90;;;;;;5272606;28;20379;-73
2022/01/07 00:44:42;;;;;;;12.57;6.30;;;8.10;99.90;;;;;;5272523;28;20020;-73
2022/01/07 00:47:14;;;;;;;13.68;6.00;;;8.00;99.90;;;;;;5272296;28;20487;-73
2022/01/07 00:49:44;;;;;;;14.80;6.15;;;7.70;99.90;;;;;;5272343;28;20020;-73
2022/01/07 00:52:15;;;;;;;16.55;8.73;;;7.80;99.90;;;;;;5272389;28;20369;-73
2022/01/07 00:54:46;;;;;;;18.40;8.63;;;7.90;99.90;;;;;;5272403;28;20045;-73
2022/01/07 00:57:17;;;;;;;18.83;10.30;;;7.90;99.90;;;;;;5272410;28;20419;-73
2022/01/07 00:59:48;;;;;;;23.83;9.65;;;8.00;99.90;;;;;;5272114;28;20020;-73
2022/01/07 01:02:19;;;;;;;20.25;10.30;;;7.90;99.90;;;;;;5272216;28;20092;-73
2022/01/07 01:04:50;;;;;;;17.58;8.40;;;7.80;99.90;;;;;;5271946;28;20027;-73
2022/01/07 01:07:21;;;;;;;13.63;7.78;;;7.60;99.90;;;;;;5272003;28;20044;-74
2022/01/07 01:09:52;;;;;;;17.00;7.95;;;7.80;99.90;;;;;;5271976;28;20031;-73
2022/01/07 01:12:23;;;;;;;17.27;8.43;;;7.70;99.90;;;;;;5271927;28;20021;-73
2022/01/07 01:14:53;;;;;;;22.73;10.27;;;7.70;99.90;;;;;;5271920;28;20023;-73
2022/01/07 01:17:24;;;;;;;20.83;10.05;;;7.80;99.90;;;;;;5271932;28;20527;-73
2022/01/07 01:19:55;;;;;;;18.48;8.70;;;8.00;99.90;;;;;;5271939;28;20107;-73
2022/01/07 01:22:26;;;;;;;18.85;9.00;;;8.10;99.90;;;;;;5271976;28;20032;-73
2022/01/07 01:24:57;;;;;;;19.75;9.80;;;8.20;99.90;;;;;;5271613;28;20431;-73
2022/01/07 01:27:28;;;;;;;25.40;11.30;;;8.20;99.90;;;;;;5270566;28;20032;-73
2022/01/07 01:30:00;;;;;;;24.55;12.45;;;8.10;99.90;;;;;;5271671;28;20101;-73
2022/01/07 01:32:31;;;;;;;24.05;13.20;;;8.10;99.90;;;;;;5271619;28;20059;-73
2022/01/07 01:35:04;;;;;;;22.58;12.48;;;8.10;99.90;;;;;;5271211;28;20113;-73
2022/01/07 01:37:35;;;;;;;23.13;11.98;;;8.10;99.90;;;;;;5271552;28;20055;-73
2022/01/07 01:40:07;;;;;;;21.33;10.70;;;8.30;99.90;;;;;;5271444;28;20042;-73
2022/01/07 01:42:38;;;;;;;20.83;10.18;;;8.30;99.90;;;;;;5271417;28;20072;-73
2022/01/07 01:45:11;;;;;;;23.27;10.93;;;8.10;99.90;;;;;;5271224;28;20041;-73
2022/01/07 01:47:42;;;;;;;26.13;10.75;;;8.20;99.90;;;;;;5271241;28;20494;-73
2022/01/07 01:50:14;;;;;;;20.85;12.07;;;8.20;99.90;;;;;;5271175;28;20349;-73
2022/01/07 01:52:48;;;;;;;25.02;11.35;;;8.20;99.90;;;;;;5271075;28;20035;-73
2022/01/07 01:55:20;;;;;;;23.52;12.75;;;8.30;99.90;;;;;;5271094;28;20033;-73
2022/01/07 01:57:52;;;;;;;24.60;12.23;;;8.20;99.90;;;;;;5271122;28;20036;-73
2022/01/07 02:00:25;;;;;;;17.05;10.82;;;8.20;99.90;;;;;;5271122;28;20016;-73
2022/01/07 02:02:56;;;;;;;25.00;10.43;;;8.30;99.90;;;;;;5270866;28;20038;-73
2022/01/07 02:05:27;;;;;;;25.50;11.95;;;8.00;99.90;;;;;;5270754;28;20490;-73
2022/01/07 02:07:58;;;;;;;20.02;9.60;;;8.20;99.90;;;;;;5270780;28;20032;-73
2022/01/07 02:10:29;;;;;;;16.55;8.77;;;8.30;99.90;;;;;;5270697;28;20024;-73
2022/01/07 02:13:00;;;;;;;17.70;9.00;;;8.20;99.90;;;;;;5270827;28;20051;-73
2022/01/07 02:15:31;;;;;;;20.40;9.35;;;8.40;99.90;;;;;;5270715;28;20588;-73
2022/01/07 02:18:02;;;;;;;19.42;8.70;;;8.40;99.90;;;;;;5270581;28;20019;-73
2022/01/07 02:20:33;;;;;;;22.42;9.23;;;8.40;99.90;;;;;;5270614;28;20379;-73
2022/01/07 02:23:04;;;;;;;20.98;8.73;;;8.20;99.90;;;;;;5270514;28;20022;-73
2022/01/07 02:25:35;;;;;;;19.88;8.50;;;8.30;99.90;;;;;;5270336;28;20020;-74
2022/01/07 02:28:06;;;;;;;18.77;10.02;;;8.60;99.90;;;;;;5270374;28;20099;-74
2022/01/07 02:30:37;;;;;;;21.55;9.82;;;8.50;99.90;;;;;;5269104;28;20052;-73
2022/01/07 02:33:08;;;;;;;18.23;8.60;;;8.60;99.90;;;;;;5270446;28;20059;-73
2022/01/07 02:35:45;;;;;;;16.65;9.80;;;8.50;99.90;;;;;;5268805;28;20495;-73
2022/01/07 02:38:16;;;;;;;23.90;10.82;;;8.50;99.90;;;;;;5270318;28;20082;-73
2022/01/07 02:40:47;;;;;;;20.38;10.10;;;8.40;99.90;;;;;;5270160;28;20056;-73
2022/01/07 02:43:17;;;;;;;16.65;8.32;;;8.60;99.90;;;;;;5270054;28;20093;-73
2022/01/07 02:45:48;;;;;;;18.58;9.43;;;8.70;99.90;;;;;;5270126;28;20024;-74
2022/01/07 02:48:20;;;;;;;20.02;8.60;;;8.80;99.90;;;;;;5270017;28;20466;-73
2022/01/07 02:50:51;;;;;;;20.40;9.52;;;9.10;99.90;;;;;;5270137;28;20058;-73
2022/01/07 02:53:22;;;;;;;21.67;10.80;;;8.90;99.90;;;;;;5270018;28;20051;-73
2022/01/07 02:55:52;;;;;;;21.90;10.57;;;8.80;99.90;;;;;;5269836;28;20458;-73
2022/01/07 02:58:23;;;;;;;16.25;10.25;;;8.90;99.90;;;;;;5269826;28;20035;-73
2022/01/07 03:00:54;;;;;;;22.83;10.10;;;8.90;99.90;;;;;;5269854;28;20024;-73
2022/01/07 03:03:25;;;;;;;15.63;9.68;;;8.90;99.90;;;;;;5269657;28;20024;-73
2022/01/07 03:05:56;;;;;;;21.65;9.32;;;9.00;99.90;;;;;;5269631;28;20069;-73
2022/01/07 03:08:26;;;;;;;16.38;8.73;;;8.80;99.90;;;;;;5269565;28;20024;-73
2022/01/07 03:10:57;;;;;;;18.17;9.32;;;8.90;99.90;;;;;;5269650;28;20020;-73
2022/01/07 03:13:28;;;;;;;17.90;9.35;;;8.90;99.90;;;;;;5269572;28;20527;-73
2022/01/07 03:15:59;;;;;;;15.88;9.13;;;8.80;99.90;;;;;;5269591;28;20426;-73
2022/01/07 03:18:30;;;;;;;20.05;9.75;;;8.80;99.90;;;;;;5269538;28;20028;-73
2022/01/07 03:21:01;;;;;;;19.63;9.55;;;8.90;99.90;;;;;;5269569;28;20077;-73
2022/01/07 03:23:32;;;;;;;16.77;9.55;;;8.90;99.90;;;;;;5269448;28;20472;-73
2022/01/07 03:26:04;;;;;;;19.63;9.30;;;8.90;99.90;;;;;;5268950;28;20027;-73
2022/01/07 03:28:35;;;;;;;22.77;10.43;;;8.70;99.90;;;;;;5269340;28;20036;-73
2022/01/07 03:31:07;;;;;;;19.63;9.77;;;8.70;99.90;;;;;;5269240;28;20031;-73
2022/01/07 03:33:38;;;;;;;16.58;9.40;;;8.70;99.90;;;;;;5269217;28;20055;-73
2022/01/07 03:36:08;;;;;;;16.15;9.05;;;8.80;99.90;;;;;;5269009;28;20082;-73
2022/01/07 03:38:39;;;;;;;18.75;9.00;;;8.90;99.90;;;;;;5269245;28;20024;-73
2022/01/07 03:41:10;;;;;;;20.25;10.70;;;9.00;99.90;;;;;;5269297;28;20024;-73
2022/01/07 03:43:41;;;;;;;22.40;13.98;;;8.80;99.90;;;;;;5269346;28;20020;-73
2022/01/07 03:46:12;;;;;;;27.70;17.60;;;8.90;99.90;;;;;;5268973;28;20024;-73
2022/01/07 03:48:42;;;;;;;57.72;38.75;;;8.80;99.90;;;;;;5269023;28;20032;-73
2022/01/07 03:51:13;;;;;;;44.38;25.20;;;8.80;99.90;;;;;;5268627;28;20016;-73
2022/01/07 03:53:45;;;;;;;40.30;26.00;;;8.90;99.90;;;;;;5268948;28;20028;-73
2022/01/07 03:56:18;;;;;;;29.35;16.52;;;9.00;99.90;;;;;;5268909;28;20016;-73
2022/01/07 03:58:49;;;;;;;29.55;13.50;;;9.30;99.90;;;;;;5269075;28;20024;-74
2022/01/07 04:01:20;;;;;;;22.35;13.20;;;9.70;99.90;;;;;;5268929;28;20487;-73
2022/01/07 04:03:51;;;;;;;16.95;8.65;;;9.80;99.90;;;;;;5268659;28;20506;-74
2022/01/07 04:06:21;;;;;;;15.18;8.27;;;9.70;99.90;;;;;;5268930;28;20036;-74
2022/01/07 04:08:52;;;;;;;15.07;8.07;;;9.90;99.90;;;;;;5268839;28;20032;-73
2022/01/07 04:11:23;;;;;;;18.85;7.80;;;9.90;99.90;;;;;;5268947;28;20024;-74
2022/01/07 04:13:54;;;;;;;14.90;7.43;;;9.90;99.90;;;;;;5268825;28;20032;-73
2022/01/07 04:16:25;;;;;;;13.93;7.60;;;10.00;99.90;;;;;;5268683;28;20490;-73
2022/01/07 04:18:56;;;;;;;13.57;6.82;;;10.00;99.90;;;;;;5268763;28;20024;-73
2022/01/07 04:21:27;;;;;;;13.27;6.50;;;9.80;99.90;;;;;;5268778;28;20032;-74
2022/01/07 04:23:57;;;;;;;12.15;6.60;;;9.80;99.90;;;;;;5268927;28;20035;-74
2022/01/07 04:26:28;;;;;;;15.48;6.78;;;9.70;99.90;;;;;;5268605;28;20024;-73
2022/01/07 04:28:59;;;;;;;14.68;6.65;;;9.70;99.90;;;;;;5268627;28;20028;-73
2022/01/07 04:31:30;;;;;;;19.92;6.93;;;9.70;99.90;;;;;;5268655;28;20122;-73
2022/01/07 04:34:01;;;;;;;15.02;6.72;;;9.60;99.90;;;;;;5268500;28;20117;-73
2022/01/07 04:36:32;;;;;;;13.88;7.55;;;9.70;99.90;;;;;;5268509;28;20104;-73
2022/01/07 04:39:03;;;;;;;15.82;7.55;;;9.60;99.90;;;;;;5268540;28;20071;-73
2022/01/07 04:41:34;;;;;;;14.07;7.15;;;9.60;99.90;;;;;;5268588;28;20027;-73
2022/01/07 04:44:05;;;;;;;13.93;7.18;;;9.70;99.90;;;;;;5268620;28;20367;-73
2022/01/07 04:46:36;;;;;;;14.95;7.38;;;9.60;99.90;;;;;;5268492;28;20493;-73
2022/01/07 04:49:07;;;;;;;15.32;8.13;;;9.60;99.90;;;;;;5268604;28;20024;-73
2022/01/07 04:51:37;;;;;;;18.33;7.97;;;9.60;99.90;;;;;;5268768;28;20456;-73
2022/01/07 04:54:08;;;;;;;17.48;8.30;;;9.60;99.90;;;;;;5268819;28;20027;-73
2022/01/07 04:56:39;;;;;;;17.13;7.70;;;9.60;99.90;;;;;;5268269;28;20035;-74
2022/01/07 04:59:10;;;;;;;16.58;8.55;;;9.60;99.90;;;;;;5268440;28;20027;-73
2022/01/07 05:01:41;;;;;;;16.42;8.80;;;9.70;99.90;;;;;;5280193;28;20035;-73
2022/01/07 05:04:12;;;;;;;21.38;8.63;;;9.60;99.90;;;;;;5293121;28;20066;-73
2022/01/07 05:06:45;;;;;;;18.95;8.85;;;9.50;99.90;;;;;;5293149;28;20042;-74
2022/01/07 05:09:17;;;;;;;16.38;9.02;;;9.60;99.90;;;;;;5293124;28;20104;-73
2022/01/07 05:11:51;;;;;;;18.92;8.55;;;9.50;99.90;;;;;;5293263;28;20012;-73
2022/01/07 05:14:22;;;;;;;20.80;9.77;;;9.60;99.90;;;;;;5292962;28;20034;-73
2022/01/07 05:16:53;;;;;;;18.65;9.50;;;9.50;99.90;;;;;;5292831;28;20049;-73
2022/01/07 05:19:24;;;;;;;20.50;9.02;;;9.40;99.90;;;;;;5297757;27;20016;-73
2022/01/07 05:21:55;;;;;;;20.73;9.40;;;9.60;99.90;;;;;;5302327;27;20030;-72
2022/01/07 05:24:27;;;;;;;18.65;8.93;;;9.40;99.90;;;;;;5300643;27;20522;-73
2022/01/07 05:26:57;;;;;;;17.58;8.63;;;9.40;99.90;;;;;;5301985;27;20344;-73
2022/01/07 05:29:30;;;;;;;20.42;9.45;;;9.50;99.90;;;;;;5303931;27;20030;-73
2022/01/07 05:32:04;;;;;;;17.05;9.23;;;9.40;99.90;;;;;;5300234;27;20092;-73
2022/01/07 05:34:35;;;;;;;23.98;9.65;;;9.30;99.90;;;;;;5298183;27;20057;-73
2022/01/07 05:37:09;;;;;;;18.15;9.05;;;9.50;99.90;;;;;;5302603;27;20549;-73
2022/01/07 05:39:40;;;;;;;22.25;9.75;;;9.40;99.90;;;;;;5302286;27;20031;-73
2022/01/07 05:42:11;;;;;;;18.98;9.98;;;9.40;99.90;;;;;;5301467;27;20020;-73
2022/01/07 05:44:41;;;;;;;22.85;9.98;;;9.60;99.90;;;;;;5302971;27;20019;-73
2022/01/07 05:47:12;;;;;;;21.58;8.30;;;9.50;99.90;;;;;;5302327;27;20123;-73
2022/01/07 05:49:43;;;;;;;16.42;7.80;;;9.20;99.90;;;;;;5302168;27;20013;-73
2022/01/07 05:52:16;;;;;;;19.25;9.05;;;9.30;99.90;;;;;;5301465;27;20011;-72
2022/01/07 05:54:48;;;;;;;17.52;8.23;;;9.20;99.90;;;;;;5300631;27;20031;-73
2022/01/07 05:57:19;;;;;;;15.18;7.70;;;9.20;99.90;;;;;;5295080;27;20027;-73
2022/01/07 05:59:50;;;;;;;23.08;7.90;;;9.30;99.90;;;;;;5298318;27;20021;-72
2022/01/07 06:02:21;;;;;;;20.50;8.23;;;9.10;99.90;;;;;;5299336;27;20028;-73
2022/01/07 06:04:52;;;;;;;16.20;7.20;;;9.10;99.90;;;;;;5301005;27;20026;-72
2022/01/07 06:07:22;;;;;;;16.42;8.13;;;9.10;99.90;;;;;;5296454;27;20039;-73
2022/01/07 06:09:53;;;;;;;19.27;7.80;;;9.10;99.90;;;;;;5292464;27;20443;-73
2022/01/07 06:12:24;;;;;;;19.27;8.38;;;9.10;99.90;;;;;;5292245;27;20147;-73
2022/01/07 06:14:55;;;;;;;24.80;9.20;;;9.10;99.90;;;;;;5283957;27;20024;-73
2022/01/07 06:17:27;;;;;;;27.95;9.48;;;9.00;99.90;;;;;;5304450;27;20493;-73
2022/01/07 06:19:58;;;;;;;31.50;10.30;;;9.10;99.90;;;;;;5290522;27;20368;-73
2022/01/07 06:22:28;;;;;;;21.13;10.15;;;9.10;99.90;;;;;;5297339;27;20023;-72
2022/01/07 06:24:59;;;;;;;21.10;10.02;;;9.10;99.90;;;;;;5297078;27;20016;-73
2022/01/07 06:27:30;;;;;;;22.60;10.27;;;8.90;99.90;;;;;;5299171;27;20114;-73
2022/01/07 06:30:02;;;;;;;19.25;10.25;;;8.90;99.90;;;;;;5276257;28;20444;-73
2022/01/07 06:32:33;;;;;;;20.80;10.20;;;8.90;99.90;;;;;;5273894;28;20039;-73
2022/01/07 06:35:05;;;;;;;18.17;10.00;;;8.90;99.90;;;;;;5271175;27;20040;-72
2022/01/07 06:37:37;;;;;;;21.70;9.10;;;8.90;99.90;;;;;;5270070;28;20069;-73
2022/01/07 06:40:09;;;;;;;19.75;8.43;;;8.90;99.90;;;;;;5269840;28;20459;-73
2022/01/07 06:42:40;;;;;;;25.15;7.78;;;8.70;99.90;;;;;;5270129;28;20032;-73
2022/01/07 06:45:11;;;;;;;16.85;7.00;;;8.70;99.90;;;;;;5282158;28;20026;-72
2022/01/07 06:47:42;;;;;;;15.82;6.55;;;8.60;99.90;;;;;;5268543;28;20136;-73
2022/01/07 06:50:12;;;;;;;41.50;19.35;;;8.60;99.90;;;;;;5284112;28;20433;-73
2022/01/07 06:52:43;;;;;;;39.53;23.25;;;8.60;99.90;;;;;;5284306;28;20055;-73
2022/01/07 06:55:14;;;;;;;19.30;12.75;;;8.60;99.90;;;;;;5273544;28;20016;-73
2022/01/07 06:57:45;;;;;;;22.35;10.18;;;8.40;99.90;;;;;;5268439;28;20016;-73
2022/01/07 07:00:16;;;;;;;15.23;9.15;;;8.60;99.90;;;;;;5269684;28;20036;-73
2022/01/07 07:02:47;;;;;;;22.42;14.90;;;8.40;99.90;;;;;;5269493;28;20209;-73
2022/01/07 07:05:18;;;;;;;21.45;11.93;;;8.60;99.90;;;;;;5269329;28;20036;-73
2022/01/07 07:07:49;;;;;;;18.88;10.02;;;8.60;99.90;;;;;;5269548;28;20375;-72
2022/01/07 07:10:20;;;;;;;10.10;5.38;;;8.60;99.90;;;;;;5269235;28;20099;-73
2022/01/07 07:12:50;;;;;;;10.10;3.63;;;8.70;99.90;;;;;;5269418;28;20032;-73
2022/01/07 07:15:21;;;;;;;16.85;9.95;;;8.50;99.90;;;;;;5279715;28;20378;-73
2022/01/07 07:17:52;;;;;;;13.57;5.90;;;8.50;99.90;;;;;;5290673;28;20043;-73
2022/01/07 07:20:23;;;;;;;14.63;8.25;;;8.40;99.90;;;;;;5288193;27;20028;-73
2022/01/07 07:22:54;;;;;;;10.75;4.20;;;8.50;99.90;;;;;;5288285;27;20470;-73
2022/01/07 07:25:25;;;;;;;11.57;4.88;;;8.50;99.90;;;;;;5298144;27;20019;-72
2022/01/07 07:27:56;;;;;;;12.77;5.32;;;8.40;99.90;;;;;;5290046;27;20051;-72
2022/01/07 07:30:35;;;;;;;13.13;4.18;;;8.30;99.90;;;;;;5288276;28;20027;-73
2022/01/07 07:33:31;;;;;;;12.48;3.90;;;8.30;99.90;;;;;;5288183;28;20024;-73
2022/01/07 07:38:51;;;;;;;16.38;11.68;;;8.30;99.90;;;;;;5295295;27;20038;-72
2022/01/07 07:41:22;;;;;;;11.73;4.78;;;8.40;99.90;;;;;;5294583;27;20019;-72
2022/01/07 07:43:54;;;;;;;11.82;5.53;;;8.40;99.90;;;;;;5296583;27;20019;-72
2022/01/07 07:46:27;;;;;;;8.90;3.72;;;8.50;99.90;;;;;;5291107;27;20479;-73
2022/01/07 07:49:00;;;;;;;10.95;4.22;;;8.50;99.90;;;;;;5293091;28;20028;-72
2022/01/07 07:51:31;;;;;;;12.05;4.80;;;8.50;99.90;;;;;;5296612;27;20023;-73
2022/01/07 07:54:03;;;;;;;8.50;4.88;;;8.30;99.90;;;;;;5294596;28;20019;-72
2022/01/07 07:56:34;;;;;;;8.70;4.82;;;8.50;99.90;;;;;;5294853;28;20059;-72
2022/01/07 07:59:05;;;;;;;9.35;4.88;;;8.50;99.90;;;;;;5290342;28;20054;-73
2022/01/07 08:01:36;;;;;;;14.35;4.13;;;8.60;99.90;;;;;;5299279;27;20027;-73
2022/01/07 08:04:11;;;;;;;13.27;5.95;;;8.60;99.90;;;;;;5288219;28;20028;-73
2022/01/07 08:06:42;;;;;;;7.60;4.13;;;8.70;99.90;;;;;;5294077;28;20138;-72
2022/01/07 08:09:13;;;;;;;9.52;3.88;;;8.70;99.90;;;;;;5289016;28;20106;-73
2022/01/07 08:11:58;;;;;;;11.15;5.57;;;8.70;99.90;;;;;;5299509;28;20370;-73
2022/01/07 08:17:18;;;;;;;11.43;4.25;;;8.80;99.90;;;;;;5298086;28;20027;-73
2022/01/07 08:19:50;;;;;;;8.68;3.33;;;9.00;99.90;;;;;;5290642;27;20394;-73
2022/01/07 08:22:21;;;;;;;9.45;3.10;;;8.90;99.90;;;;;;5288312;28;20049;-72
2022/01/07 08:24:52;;;;;;;9.40;3.85;;;8.80;99.90;;;;;;5288165;28;20020;-73
2022/01/07 08:27:23;;;;;;;16.65;5.32;;;8.80;99.90;;;;;;5282347;28;20035;-73
2022/01/07 08:29:54;;;;;;;10.68;4.22;;;8.70;99.90;;;;;;5288151;28;20377;-73
2022/01/07 08:35:14;;;;;;;12.55;4.97;;;8.90;99.90;;;;;;5297683;27;20107;-74
2022/01/07 08:37:45;;;;;;;13.98;4.53;;;8.80;99.90;;;;;;5295381;27;20032;-72
2022/01/07 08:40:16;;;;;;;14.25;5.32;;;8.90;99.90;;;;;;5298498;27;20019;-73
2022/01/07 08:42:47;;;;;;;11.10;5.20;;;8.70;99.90;;;;;;5298383;27;20098;-73
2022/01/07 08:45:17;;;;;;;8.85;5.80;;;8.80;99.90;;;;;;5295598;27;20020;-73
2022/01/07 08:47:48;;;;;;;14.25;6.90;;;8.80;99.90;;;;;;5294418;27;20032;-73
2022/01/07 08:50:19;;;;;;;16.85;8.80;;;8.80;99.90;;;;;;5296515;27;20024;-73
2022/01/07 08:52:50;;;;;;;17.27;8.25;;;8.80;99.90;;;;;;5291356;28;20015;-73
2022/01/07 08:55:21;;;;;;;17.58;9.10;;;8.90;99.90;;;;;;5302392;27;20015;-73
2022/01/07 08:57:52;;;;;;;20.25;9.50;;;8.90;99.90;;;;;;5292839;27;20027;-73
2022/01/07 09:00:24;;;;;;;19.70;10.25;;;8.90;99.90;;;;;;5292030;28;20497;-73
2022/01/07 09:02:55;;;;;;;17.77;10.82;;;8.90;99.90;;;;;;5291995;27;20024;-73
2022/01/07 09:05:26;;;;;;;20.25;10.70;;;9.00;99.90;;;;;;5302364;27;20146;-74
2022/01/07 09:07:57;;;;;;;22.27;12.15;;;8.80;99.90;;;;;;5293174;27;20082;-73
2022/01/07 09:10:28;;;;;;;21.20;14.48;;;8.80;99.90;;;;;;5298128;27;20475;-74
2022/01/07 09:12:58;;;;;;;23.27;10.23;;;9.00;99.90;;;;;;5291401;28;20066;-72
2022/01/07 09:15:29;;;;;;;21.20;9.50;;;8.90;99.90;;;;;;5291818;28;20069;-73
2022/01/07 09:18:09;;;;;;;19.75;10.45;;;8.90;99.90;;;;;;5297381;27;20028;-73
2022/01/07 09:20:43;;;;;;;15.32;9.55;;;8.90;99.90;;;;;;5296917;27;20035;-73
2022/01/07 09:23:15;;;;;;;26.25;10.63;;;8.90;99.90;;;;;;5292463;27;20051;-72
2022/01/07 09:25:45;;;;;;;20.42;10.88;;;8.90;99.90;;;;;;5288153;27;20031;-72
2022/01/07 09:28:17;;;;;;;18.20;10.93;;;8.70;99.90;;;;;;5291166;28;20041;-73
2022/01/07 09:30:48;;;;;;;21.90;12.43;;;8.70;99.90;;;;;;5292102;27;20028;-72
2022/01/07 09:33:18;;;;;;;21.25;10.95;;;9.00;99.90;;;;;;5297351;27;20071;-73
2022/01/07 09:35:51;;;;;;;23.10;12.10;;;9.00;99.90;;;;;;5296533;27;20444;-72
2022/01/07 09:38:22;;;;;;;37.70;19.40;;;8.90;99.90;;;;;;5297476;27;20101;-72
2022/01/07 09:40:53;;;;;;;31.08;16.13;;;8.70;99.90;;;;;;5291065;28;20146;-73
2022/01/07 09:43:25;;;;;;;29.40;14.73;;;8.80;99.90;;;;;;5298037;27;20018;-73
2022/01/07 09:45:56;;;;;;;22.98;14.02;;;8.60;99.90;;;;;;5292377;27;20067;-73
2022/01/07 09:48:27;;;;;;;29.23;15.25;;;8.80;99.90;;;;;;5291422;28;20463;-73
2022/01/07 09:50:59;;;;;;;27.40;16.95;;;8.80;99.90;;;;;;5287524;28;20031;-73
2022/01/07 09:53:31;;;;;;;29.02;16.95;;;9.00;99.90;;;;;;5282733;28;20055;-73
2022/01/07 09:56:04;;;;;;;24.33;14.02;;;8.90;99.90;;;;;;5292311;27;20471;-73
2022/01/07 09:58:36;;;;;;;26.13;14.00;;;8.80;99.90;;;;;;5285217;27;20038;-73
2022/01/07 10:01:09;;;;;;;19.30;11.07;;;8.80;99.90;;;;;;5292378;27;20027;-73
2022/01/07 10:03:42;;;;;;;19.95;11.18;;;8.70;99.90;;;;;;5295062;27;20035;-73
2022/01/07 10:06:26;;;;;;;16.08;8.98;;;8.90;99.90;;;;;;5291989;27;20035;-73
2022/01/07 10:09:10;;;;;;;16.08;8.85;;;8.80;99.90;;;;;;5290371;28;20074;-73
2022/01/07 10:11:41;;;;;;;23.10;10.70;;;8.60;99.90;;;;;;5292247;27;20028;-72
2022/01/07 10:14:21;;;;;;;18.80;10.13;;;8.60;99.90;;;;;;5296814;27;20028;-73
2022/01/07 10:16:54;;;;;;;14.27;7.90;;;8.60;99.90;;;;;;5290032;28;20020;-73
2022/01/07 10:19:37;;;;;;;20.67;9.63;;;8.70;99.90;;;;;;5283812;28;20359;-73
2022/01/07 10:22:13;;;;;;;27.38;16.10;;;8.60;99.90;;;;;;5288765;28;20024;-73
2022/01/07 10:24:59;;;;;;;20.30;10.30;;;8.60;99.90;;;;;;5292669;27;20020;-73
2022/01/07 10:27:38;;;;;;;18.20;9.60;;;8.60;99.90;;;;;;5284939;28;20061;-73
2022/01/07 10:30:18;;;;;;;18.38;9.70;;;8.60;99.90;;;;;;5296108;27;20086;-73
2022/01/07 10:32:49;;;;;;;18.45;10.40;;;8.60;99.90;;;;;;5277970;27;20032;-73
2022/01/07 10:35:23;;;;;;;22.83;9.70;;;8.60;99.90;;;;;;5285389;27;20040;-72
2022/01/07 10:38:00;;;;;;;26.73;9.80;;;8.60;99.90;;;;;;5289989;27;20489;-73
2022/01/07 10:40:44;;;;;;;16.63;10.27;;;8.50;99.90;;;;;;5303100;27;20030;-73
2022/01/07 10:43:24;;;;;;;15.38;8.55;;;8.60;99.90;;;;;;5302558;27;20061;-73
2022/01/07 10:46:13;;;;;;;14.75;8.98;;;8.40;99.90;;;;;;5301970;27;20024;-72
2022/01/07 10:48:57;;;;;;;17.35;9.55;;;8.40;99.90;;;;;;5307327;27;20035;-72
2022/01/07 10:51:36;;;;;;;26.38;11.05;;;8.50;99.90;;;;;;5285999;27;20015;-73
2022/01/07 10:54:10;;;;;;;16.90;9.38;;;8.40;99.90;;;;;;5302579;27;20498;-73
2022/01/07 10:56:44;;;;;;;16.85;10.38;;;8.50;99.90;;;;;;5306069;27;20023;-73
2022/01/07 10:59:17;;;;;;;20.05;14.00;;;8.30;99.90;;;;;;5294687;27;20019;-73
2022/01/07 11:01:50;;;;;;;19.10;11.10;;;8.50;99.90;;;;;;5302544;27;20391;-73
2022/01/07 11:04:26;;;;;;;22.50;11.00;;;8.40;99.90;;;;;;5308017;27;20115;-73
2022/01/07 11:06:59;;;;;;;22.63;10.57;;;8.60;99.90;;;;;;5293388;27;20039;-73
2022/01/07 11:09:30;;;;;;;26.48;12.40;;;8.50;99.90;;;;;;5289458;27;20023;-73
2022/01/07 11:12:06;;;;;;;25.02;11.85;;;8.50;99.90;;;;;;5301814;27;20024;-72
2022/01/07 11:14:38;;;;;;;20.73;12.57;;;8.60;99.90;;;;;;5297470;27;20034;-73
2022/01/07 11:17:12;;;;;;;23.23;11.98;;;8.60;99.90;;;;;;5284212;27;20036;-73
2022/01/07 11:19:44;;;;;;;26.92;12.25;;;8.60;99.90;;;;;;5281953;27;20031;-73
2022/01/07 11:22:16;;;;;;;25.55;13.43;;;8.50;99.90;;;;;;5302133;27;20027;-73
2022/01/07 11:24:55;;;;;;;25.02;12.85;;;8.50;99.90;;;;;;5295184;27;20457;-72
2022/01/07 11:27:27;;;;;;;27.55;12.02;;;8.60;99.90;;;;;;5278044;27;20034;-72
2022/01/07 11:30:11;;;;;;;25.27;12.77;;;8.50;99.90;;;;;;5288639;28;20020;-73
2022/01/07 11:32:44;;;;;;;30.38;15.88;;;8.40;99.90;;;;;;5291450;27;20026;-72
2022/01/07 11:35:21;;;;;;;28.48;15.32;;;8.40;99.90;;;;;;5288238;28;20047;-73
2022/01/07 11:37:59;;;;;;;33.08;16.50;;;8.40;99.90;;;;;;5297768;27;20462;-72
2022/01/07 11:40:45;;;;;;;28.27;16.17;;;8.40;99.90;;;;;;5298610;27;20044;-73
2022/01/07 11:43:20;;;;;;;39.40;20.25;;;8.40;99.90;;;;;;5300994;27;20355;-73
2022/01/07 11:45:52;;;;;;;36.83;17.67;;;8.50;99.90;;;;;;5298387;27;20027;-72
2022/01/07 11:48:27;;;;;;;34.28;18.52;;;8.40;99.90;;;;;;5299417;27;20043;-72
2022/01/07 11:50:59;;;;;;;28.08;15.90;;;8.60;99.90;;;;;;5298251;28;20478;-73
2022/01/07 11:53:36;;;;;;;33.15;17.65;;;8.60;99.90;;;;;;5307758;27;20039;-72
2022/01/07 11:56:09;;;;;;;81.85;50.45;;;8.50;99.90;;;;;;5311048;27;20015;-72
2022/01/07 11:58:47;;;;;;;38.80;22.83;;;8.50;99.90;;;;;;5304405;27;20023;-72
2022/01/07 12:01:34;;;;;;;38.70;22.10;;;8.60;99.90;;;;;;5292623;28;20084;-72
2022/01/07 12:04:19;;;;;;;34.25;18.38;;;8.50;99.90;;;;;;5300645;27;20020;-72
2022/01/07 12:06:50;;;;;;;32.47;18.48;;;8.40;99.90;;;;;;5283479;28;20104;-72
2022/01/07 12:09:32;;;;;;;35.65;18.45;;;8.30;99.90;;;;;;5288819;28;20027;-72
2022/01/07 12:12:11;;;;;;;39.30;23.45;;;8.20;99.90;;;;;;5292159;27;20023;-72
2022/01/07 12:14:51;;;;;;;39.65;20.70;;;8.30;99.90;;;;;;5303462;27;20121;-72
2022/01/07 12:17:25;;;;;;;68.57;38.72;;;8.30;99.90;;;;;;5310834;27;20149;-71
2022/01/07 12:20:31;;;;;;;47.80;26.15;;;8.50;99.90;;;;;;5291600;27;20115;-73
2022/01/07 12:23:03;;;;;;;53.80;25.98;;;8.50;99.90;;;;;;5295682;27;20107;-72
2022/01/07 12:25:34;;;;;;;56.22;33.92;;;8.30;99.90;;;;;;5308788;27;20085;-73
2022/01/07 12:28:05;;;;;;;52.35;25.42;;;8.40;99.90;;;;;;5303453;27;20408;-73
2022/01/07 12:30:41;;;;;;;63.22;35.25;;;8.10;99.90;;;;;;5296038;27;20061;-72
2022/01/07 12:33:13;;;;;;;56.38;31.17;;;8.10;99.90;;;;;;5309685;27;20019;-73
2022/01/07 12:35:45;;;;;;;45.00;25.52;;;8.30;99.90;;;;;;5294855;27;20464;-72
2022/01/07 12:38:19;;;;;;;45.67;23.73;;;8.30;99.90;;;;;;5301419;27;20023;-73
2022/01/07 12:40:53;;;;;;;58.38;35.70;;;8.30;99.90;;;;;;5304138;27;20106;-73
2022/01/07 12:43:31;;;;;;;46.83;25.67;;;8.20;99.90;;;;;;5304910;27;20019;-73
2022/01/07 12:46:06;;;;;;;44.47;24.90;;;8.20;99.90;;;;;;5314392;27;20027;-73
2022/01/07 12:48:40;;;;;;;42.50;24.00;;;8.20;99.90;;;;;;5297906;27;20036;-73
2022/01/07 12:51:11;;;;;;;47.95;25.02;;;8.20;99.90;;;;;;5302344;27;20020;-73
2022/01/07 12:54:06;;;;;;;48.95;28.95;;;8.30;99.90;;;;;;5292523;27;20031;-72
2022/01/07 12:56:39;;;;;;;51.70;29.58;;;8.10;99.90;;;;;;5299326;27;20027;-72
2022/01/07 12:59:18;;;;;;;73.38;47.42;;;8.10;99.90;;;;;;5292914;27;20024;-73
2022/01/07 13:01:49;;;;;;;41.33;25.92;;;8.10;99.90;;;;;;5291573;28;20494;-73
2022/01/07 13:04:25;;;;;;;41.40;23.80;;;8.10;99.90;;;;;;5305760;27;20113;-73
2022/01/07 13:06:56;;;;;;;34.28;20.80;;;8.10;99.90;;;;;;5313245;27;20027;-73
2022/01/07 13:09:29;;;;;;;35.10;20.77;;;8.10;99.90;;;;;;5313662;27;20362;-73
2022/01/07 13:12:01;;;;;;;35.38;20.88;;;8.10;99.90;;;;;;5312978;27;20029;-73
2022/01/07 13:14:32;;;;;;;39.35;23.83;;;8.10;99.90;;;;;;5312958;27;20042;-73
2022/01/07 13:17:05;;;;;;;37.47;20.95;;;8.20;99.90;;;;;;5314371;27;20023;-73
2022/01/07 13:19:44;;;;;;;37.63;20.98;;;8.10;99.90;;;;;;5314074;27;20494;-73